sensor_id;sensor_type;location;lat;lon;timestamp;pressure;altitude;pressure_sealevel;temperature;humidity
68506;BME280;55509;50.680;17.942;2022-10-23T00:01:23;99914.62;;;10.75;88.57
68506;BME280;55509;50.680;17.942;2022-10-23T00:04:26;99915.69;;;10.81;88.47
68506;BME280;55509;50.680;17.942;2022-10-23T00:07:27;99916.23;;;10.88;88.14
68506;BME280;55509;50.680;17.942;2022-10-23T00:10:30;99913.23;;;10.95;87.99
68506;BME280;55509;50.680;17.942;2022-10-23T00:13:31;99913.45;;;11.00;87.95
68506;BME280;55509;50.680;17.942;2022-10-23T00:16:33;99917.89;;;11.05;87.84
68506;BME280;55509;50.680;17.942;2022-10-23T00:19:34;99915.75;;;11.06;87.85
68506;BME280;55509;50.680;17.942;2022-10-23T00:22:36;99919.50;;;11.04;87.73
68506;BME280;55509;50.680;17.942;2022-10-23T00:25:38;99929.96;;;11.01;87.78
68506;BME280;55509;50.680;17.942;2022-10-23T00:28:39;99930.82;;;10.95;87.64
68506;BME280;55509;50.680;17.942;2022-10-23T00:31:40;99934.35;;;10.88;87.65
68506;BME280;55509;50.680;17.942;2022-10-23T00:34:42;99932.58;;;10.81;87.73
68506;BME280;55509;50.680;17.942;2022-10-23T00:37:43;99931.98;;;10.77;88.01
68506;BME280;55509;50.680;17.942;2022-10-23T00:40:44;99932.38;;;10.76;88.29
68506;BME280;55509;50.680;17.942;2022-10-23T00:43:58;99928.34;;;10.75;88.32
68506;BME280;55509;50.680;17.942;2022-10-23T00:47:00;99924.31;;;10.74;88.35
68506;BME280;55509;50.680;17.942;2022-10-23T00:50:02;99926.98;;;10.73;88.40
68506;BME280;55509;50.680;17.942;2022-10-23T00:53:04;99930.17;;;10.72;88.58
68506;BME280;55509;50.680;17.942;2022-10-23T00:56:05;99931.58;;;10.72;88.47
68506;BME280;55509;50.680;17.942;2022-10-23T00:59:07;99932.10;;;10.73;88.48
68506;BME280;55509;50.680;17.942;2022-10-23T01:02:08;99930.17;;;10.72;88.57
68506;BME280;55509;50.680;17.942;2022-10-23T01:05:10;99931.20;;;10.73;88.71
68506;BME280;55509;50.680;17.942;2022-10-23T01:08:16;99927.49;;;10.73;88.63
68506;BME280;55509;50.680;17.942;2022-10-23T01:11:22;99925.05;;;10.73;88.64
68506;BME280;55509;50.680;17.942;2022-10-23T01:17:40;99929.42;;;10.66;88.91
68506;BME280;55509;50.680;17.942;2022-10-23T01:20:54;99927.77;;;10.63;88.85
68506;BME280;55509;50.680;17.942;2022-10-23T01:27:22;99918.82;;;10.47;88.84
68506;BME280;55509;50.680;17.942;2022-10-23T01:30:24;99921.20;;;10.41;89.17
68506;BME280;55509;50.680;17.942;2022-10-23T01:33:31;99922.56;;;10.36;89.37
68506;BME280;55509;50.680;17.942;2022-10-23T01:36:34;99925.12;;;10.31;89.48
68506;BME280;55509;50.680;17.942;2022-10-23T01:39:40;99923.61;;;10.28;89.83
68506;BME280;55509;50.680;17.942;2022-10-23T01:42:46;99924.56;;;10.25;89.93
68506;BME280;55509;50.680;17.942;2022-10-23T01:45:51;99925.33;;;10.23;89.96
68506;BME280;55509;50.680;17.942;2022-10-23T01:48:55;99929.23;;;10.21;89.94
68506;BME280;55509;50.680;17.942;2022-10-23T01:51:58;99933.75;;;10.23;90.01
68506;BME280;55509;50.680;17.942;2022-10-23T01:55:02;99931.52;;;10.28;90.18
68506;BME280;55509;50.680;17.942;2022-10-23T01:58:03;99936.94;;;10.37;90.27
68506;BME280;55509;50.680;17.942;2022-10-23T02:01:07;99935.17;;;10.46;90.21
68506;BME280;55509;50.680;17.942;2022-10-23T02:04:12;99940.42;;;10.55;90.11
68506;BME280;55509;50.680;17.942;2022-10-23T02:07:15;99940.02;;;10.64;89.99
68506;BME280;55509;50.680;17.942;2022-10-23T02:10:16;99941.93;;;10.73;89.92
68506;BME280;55509;50.680;17.942;2022-10-23T02:13:32;99939.29;;;10.80;89.71
68506;BME280;55509;50.680;17.942;2022-10-23T02:16:39;99936.13;;;10.87;89.59
68506;BME280;55509;50.680;17.942;2022-10-23T02:19:49;99927.70;;;10.93;89.51
68506;BME280;55509;50.680;17.942;2022-10-23T02:22:59;99930.77;;;10.97;89.49
68506;BME280;55509;50.680;17.942;2022-10-23T02:26:05;99930.95;;;10.97;89.26
68506;BME280;55509;50.680;17.942;2022-10-23T02:29:09;99927.85;;;10.94;89.27
68506;BME280;55509;50.680;17.942;2022-10-23T02:32:13;99937.85;;;10.89;89.20
68506;BME280;55509;50.680;17.942;2022-10-23T02:35:16;99935.95;;;10.81;89.25
68506;BME280;55509;50.680;17.942;2022-10-23T02:53:59;99942.48;;;10.41;89.71
68506;BME280;55509;50.680;17.942;2022-10-23T02:57:18;99946.58;;;10.39;89.73
68506;BME280;55509;50.680;17.942;2022-10-23T03:00:23;99950.28;;;10.38;89.83
68506;BME280;55509;50.680;17.942;2022-10-23T03:03:26;99953.31;;;10.36;89.92
68506;BME280;55509;50.680;17.942;2022-10-23T03:06:29;99958.13;;;10.33;89.82
68506;BME280;55509;50.680;17.942;2022-10-23T03:09:30;99961.55;;;10.29;89.92
68506;BME280;55509;50.680;17.942;2022-10-23T03:12:32;99961.13;;;10.25;89.93
68506;BME280;55509;50.680;17.942;2022-10-23T03:15:33;99963.73;;;10.18;89.90
68506;BME280;55509;50.680;17.942;2022-10-23T03:18:35;99963.17;;;10.11;90.15
68506;BME280;55509;50.680;17.942;2022-10-23T03:21:36;99964.35;;;10.05;90.33
68506;BME280;55509;50.680;17.942;2022-10-23T03:24:38;99959.58;;;9.99;90.49
68506;BME280;55509;50.680;17.942;2022-10-23T03:27:39;99957.09;;;9.91;90.40
68506;BME280;55509;50.680;17.942;2022-10-23T03:30:41;99956.00;;;9.85;90.50
68506;BME280;55509;50.680;17.942;2022-10-23T03:33:42;99959.80;;;9.80;90.57
68506;BME280;55509;50.680;17.942;2022-10-23T03:36:43;99960.40;;;9.76;90.65
68506;BME280;55509;50.680;17.942;2022-10-23T03:39:45;99958.73;;;9.72;90.80
68506;BME280;55509;50.680;17.942;2022-10-23T03:42:46;99958.10;;;9.69;90.89
68506;BME280;55509;50.680;17.942;2022-10-23T03:45:47;99955.55;;;9.63;90.91
68506;BME280;55509;50.680;17.942;2022-10-23T03:48:49;99955.27;;;9.61;90.74
68506;BME280;55509;50.680;17.942;2022-10-23T03:51:50;99952.02;;;9.56;91.10
68506;BME280;55509;50.680;17.942;2022-10-23T03:54:53;99952.30;;;9.50;90.85
68506;BME280;55509;50.680;17.942;2022-10-23T03:57:54;99952.41;;;9.45;91.23
68506;BME280;55509;50.680;17.942;2022-10-23T04:00:56;99956.75;;;9.37;91.27
68506;BME280;55509;50.680;17.942;2022-10-23T04:03:57;99963.39;;;9.30;91.16
68506;BME280;55509;50.680;17.942;2022-10-23T04:06:58;99965.42;;;9.24;91.32
68506;BME280;55509;50.680;17.942;2022-10-23T04:10:00;99967.08;;;9.21;91.37
68506;BME280;55509;50.680;17.942;2022-10-23T04:13:01;99969.43;;;9.17;91.38
68506;BME280;55509;50.680;17.942;2022-10-23T04:16:03;99973.35;;;9.12;91.74
68506;BME280;55509;50.680;17.942;2022-10-23T04:19:04;99982.35;;;9.09;91.73
68506;BME280;55509;50.680;17.942;2022-10-23T04:22:06;99985.37;;;9.08;91.94
68506;BME280;55509;50.680;17.942;2022-10-23T04:25:07;99981.47;;;9.09;91.90
68506;BME280;55509;50.680;17.942;2022-10-23T04:28:09;99983.04;;;9.10;92.19
68506;BME280;55509;50.680;17.942;2022-10-23T04:31:11;99982.48;;;9.12;91.93
68506;BME280;55509;50.680;17.942;2022-10-23T04:34:12;99979.11;;;9.13;92.09
68506;BME280;55509;50.680;17.942;2022-10-23T04:37:13;99978.23;;;9.15;91.95
68506;BME280;55509;50.680;17.942;2022-10-23T04:40:15;99981.33;;;9.18;92.08
68506;BME280;55509;50.680;17.942;2022-10-23T04:43:16;99981.77;;;9.22;92.10
68506;BME280;55509;50.680;17.942;2022-10-23T04:46:18;99975.95;;;9.24;91.92
68506;BME280;55509;50.680;17.942;2022-10-23T04:49:19;99968.36;;;9.27;91.95
68506;BME280;55509;50.680;17.942;2022-10-23T04:52:20;99972.74;;;9.27;91.82
68506;BME280;55509;50.680;17.942;2022-10-23T04:55:22;99971.89;;;9.25;91.63
68506;BME280;55509;50.680;17.942;2022-10-23T04:58:26;99977.50;;;9.26;91.67
68506;BME280;55509;50.680;17.942;2022-10-23T05:01:27;99976.44;;;9.26;91.51
68506;BME280;55509;50.680;17.942;2022-10-23T05:04:29;99970.29;;;9.26;91.38
68506;BME280;55509;50.680;17.942;2022-10-23T05:07:30;99975.55;;;9.27;91.44
68506;BME280;55509;50.680;17.942;2022-10-23T05:10:31;99975.05;;;9.26;91.41
68506;BME280;55509;50.680;17.942;2022-10-23T05:13:33;99975.41;;;9.25;91.39
68506;BME280;55509;50.680;17.942;2022-10-23T05:16:38;99974.20;;;9.24;91.43
68506;BME280;55509;50.680;17.942;2022-10-23T05:19:52;99977.35;;;9.24;91.59
68506;BME280;55509;50.680;17.942;2022-10-23T05:22:54;99982.73;;;9.28;91.68
68506;BME280;55509;50.680;17.942;2022-10-23T05:25:57;99986.19;;;9.31;91.40
68506;BME280;55509;50.680;17.942;2022-10-23T05:28:58;99982.95;;;9.35;91.62
68506;BME280;55509;50.680;17.942;2022-10-23T05:32:00;99984.13;;;9.38;91.46
68506;BME280;55509;50.680;17.942;2022-10-23T05:35:08;99989.71;;;9.40;91.41
68506;BME280;55509;50.680;17.942;2022-10-23T05:38:10;99993.88;;;9.43;91.56
68506;BME280;55509;50.680;17.942;2022-10-23T05:41:11;99996.77;;;9.47;91.37
68506;BME280;55509;50.680;17.942;2022-10-23T05:44:13;100004.20;;;9.54;91.27
68506;BME280;55509;50.680;17.942;2022-10-23T05:47:14;100002.52;;;9.59;90.73
68506;BME280;55509;50.680;17.942;2022-10-23T05:50:16;100004.17;;;9.64;90.64
68506;BME280;55509;50.680;17.942;2022-10-23T05:53:17;100005.05;;;9.65;90.39
68506;BME280;55509;50.680;17.942;2022-10-23T05:56:18;100008.23;;;9.63;90.10
68506;BME280;55509;50.680;17.942;2022-10-23T05:59:20;100008.42;;;9.63;90.04
68506;BME280;55509;50.680;17.942;2022-10-23T06:02:21;100006.63;;;9.64;89.95
68506;BME280;55509;50.680;17.942;2022-10-23T06:05:23;100010.80;;;9.67;89.97
68506;BME280;55509;50.680;17.942;2022-10-23T06:08:24;100012.73;;;9.67;89.74
68506;BME280;55509;50.680;17.942;2022-10-23T06:11:25;100010.23;;;9.69;89.55
68506;BME280;55509;50.680;17.942;2022-10-23T06:14:27;100007.94;;;9.70;89.18
68506;BME280;55509;50.680;17.942;2022-10-23T06:17:28;100013.52;;;9.72;89.10
68506;BME280;55509;50.680;17.942;2022-10-23T06:20:29;100015.20;;;9.75;88.91
68506;BME280;55509;50.680;17.942;2022-10-23T06:23:31;100018.19;;;9.85;88.76
68506;BME280;55509;50.680;17.942;2022-10-23T06:26:33;100012.38;;;10.03;88.19
68506;BME280;55509;50.680;17.942;2022-10-23T06:29:34;100005.25;;;10.08;87.77
68506;BME280;55509;50.680;17.942;2022-10-23T06:32:36;100005.56;;;10.09;87.55
68506;BME280;55509;50.680;17.942;2022-10-23T06:35:37;100004.60;;;10.14;87.24
68506;BME280;55509;50.680;17.942;2022-10-23T06:38:38;100004.36;;;10.25;87.13
68506;BME280;55509;50.680;17.942;2022-10-23T06:41:40;100009.02;;;10.37;86.99
68506;BME280;55509;50.680;17.942;2022-10-23T06:44:44;100006.10;;;10.50;86.52
68506;BME280;55509;50.680;17.942;2022-10-23T06:47:45;100010.31;;;10.59;86.12
68506;BME280;55509;50.680;17.942;2022-10-23T06:50:47;100023.08;;;10.62;86.02
68506;BME280;55509;50.680;17.942;2022-10-23T06:53:48;100027.95;;;10.65;85.85
68506;BME280;55509;50.680;17.942;2022-10-23T06:56:49;100027.27;;;10.63;85.82
68506;BME280;55509;50.680;17.942;2022-10-23T06:59:51;100026.77;;;10.62;85.82
68506;BME280;55509;50.680;17.942;2022-10-23T07:02:52;100029.72;;;10.64;85.93
68506;BME280;55509;50.680;17.942;2022-10-23T07:05:54;100019.01;;;10.79;85.87
68506;BME280;55509;50.680;17.942;2022-10-23T07:08:55;100028.23;;;11.05;85.26
68506;BME280;55509;50.680;17.942;2022-10-23T07:11:57;100031.30;;;11.31;84.35
68506;BME280;55509;50.680;17.942;2022-10-23T07:14:58;100031.31;;;11.57;83.58
68506;BME280;55509;50.680;17.942;2022-10-23T07:18:00;100031.99;;;11.78;82.62
68506;BME280;55509;50.680;17.942;2022-10-23T07:21:01;100034.23;;;12.12;81.85
68506;BME280;55509;50.680;17.942;2022-10-23T07:24:02;100032.33;;;12.98;79.79
68506;BME280;55509;50.680;17.942;2022-10-23T07:27:04;100028.15;;;13.44;78.15
68506;BME280;55509;50.680;17.942;2022-10-23T07:30:06;100034.39;;;13.10;78.07
68506;BME280;55509;50.680;17.942;2022-10-23T07:33:08;100034.34;;;12.80;77.67
68506;BME280;55509;50.680;17.942;2022-10-23T07:36:12;100028.91;;;12.66;78.16
68506;BME280;55509;50.680;17.942;2022-10-23T07:39:14;100019.32;;;12.80;78.10
68506;BME280;55509;50.680;17.942;2022-10-23T07:42:15;100017.36;;;14.30;75.67
68506;BME280;55509;50.680;17.942;2022-10-23T07:45:16;100002.02;;;16.71;69.74
68506;BME280;55509;50.680;17.942;2022-10-23T07:48:18;100004.88;;;18.25;64.05
68506;BME280;55509;50.680;17.942;2022-10-23T07:51:21;100004.69;;;19.26;60.64
68506;BME280;55509;50.680;17.942;2022-10-23T07:54:22;100013.09;;;19.62;57.82
68506;BME280;55509;50.680;17.942;2022-10-23T07:57:24;100018.30;;;19.83;56.38
68506;BME280;55509;50.680;17.942;2022-10-23T08:00:25;100021.00;;;19.67;56.76
68506;BME280;55509;50.680;17.942;2022-10-23T08:03:27;100023.30;;;19.13;56.30
68506;BME280;55509;50.680;17.942;2022-10-23T08:06:29;100022.65;;;18.77;56.96
68506;BME280;55509;50.680;17.942;2022-10-23T08:09:31;100025.23;;;19.29;56.25
68506;BME280;55509;50.680;17.942;2022-10-23T08:12:35;100016.23;;;20.13;55.10
68506;BME280;55509;50.680;17.942;2022-10-23T08:15:37;100007.36;;;21.07;54.03
68506;BME280;55509;50.680;17.942;2022-10-23T08:18:38;100003.64;;;21.58;53.30
68506;BME280;55509;50.680;17.942;2022-10-23T08:21:42;99997.63;;;21.09;51.35
68506;BME280;55509;50.680;17.942;2022-10-23T08:24:44;99992.08;;;20.79;51.87
68506;BME280;55509;50.680;17.942;2022-10-23T08:27:45;99996.86;;;20.66;51.89
68506;BME280;55509;50.680;17.942;2022-10-23T08:30:46;99998.35;;;20.81;52.44
68506;BME280;55509;50.680;17.942;2022-10-23T08:33:48;99999.13;;;21.69;51.12
68506;BME280;55509;50.680;17.942;2022-10-23T08:36:49;99995.73;;;22.45;48.77
68506;BME280;55509;50.680;17.942;2022-10-23T08:39:51;99995.41;;;23.32;46.29
68506;BME280;55509;50.680;17.942;2022-10-23T08:42:56;99992.95;;;23.96;44.57
68506;BME280;55509;50.680;17.942;2022-10-23T08:46:00;99995.04;;;25.28;43.05
68506;BME280;55509;50.680;17.942;2022-10-23T08:55:29;99995.44;;;28.65;35.73
68506;BME280;55509;50.680;17.942;2022-10-23T09:04:56;99998.73;;;28.12;33.18
68506;BME280;55509;50.680;17.942;2022-10-23T09:08:00;99998.19;;;27.84;34.66
68506;BME280;55509;50.680;17.942;2022-10-23T09:11:19;99994.13;;;28.34;34.87
68506;BME280;55509;50.680;17.942;2022-10-23T09:17:32;100000.97;;;30.60;31.17
68506;BME280;55509;50.680;17.942;2022-10-23T09:20:34;100007.43;;;31.11;29.92
68506;BME280;55509;50.680;17.942;2022-10-23T09:23:36;100013.70;;;31.60;28.22
68506;BME280;55509;50.680;17.942;2022-10-23T09:26:38;100020.49;;;31.55;28.19
68506;BME280;55509;50.680;17.942;2022-10-23T09:29:46;100032.10;;;31.40;27.97
68506;BME280;55509;50.680;17.942;2022-10-23T09:32:48;100037.27;;;31.51;27.99
68506;BME280;55509;50.680;17.942;2022-10-23T09:35:57;100027.66;;;31.93;28.92
68506;BME280;55509;50.680;17.942;2022-10-23T09:38:59;100019.73;;;32.83;28.97
68506;BME280;55509;50.680;17.942;2022-10-23T09:42:12;100023.61;;;33.75;26.96
68506;BME280;55509;50.680;17.942;2022-10-23T09:48:44;100023.15;;;34.14;25.00
68506;BME280;55509;50.680;17.942;2022-10-23T09:55:19;100017.20;;;33.38;24.94
68506;BME280;55509;50.680;17.942;2022-10-23T09:58:28;100018.48;;;32.72;25.71
68506;BME280;55509;50.680;17.942;2022-10-23T10:01:32;100012.15;;;32.27;26.13
68506;BME280;55509;50.680;17.942;2022-10-23T10:04:34;100008.98;;;32.18;26.47
68506;BME280;55509;50.680;17.942;2022-10-23T10:07:36;100003.41;;;32.11;26.18
68506;BME280;55509;50.680;17.942;2022-10-23T10:10:40;99993.62;;;32.08;26.95
68506;BME280;55509;50.680;17.942;2022-10-23T10:17:07;99992.66;;;32.13;26.37
68506;BME280;55509;50.680;17.942;2022-10-23T10:23:25;99988.84;;;32.94;26.49
68506;BME280;55509;50.680;17.942;2022-10-23T10:39:43;99966.29;;;33.70;25.22
68506;BME280;55509;50.680;17.942;2022-10-23T10:46:38;99968.05;;;33.48;25.20
68506;BME280;55509;50.680;17.942;2022-10-23T10:52:49;99967.86;;;31.26;27.59
68506;BME280;55509;50.680;17.942;2022-10-23T10:55:53;99963.21;;;29.70;29.89
68506;BME280;55509;50.680;17.942;2022-10-23T10:58:56;99964.52;;;28.31;32.07
68506;BME280;55509;50.680;17.942;2022-10-23T11:02:04;99963.11;;;26.73;34.08
68506;BME280;55509;50.680;17.942;2022-10-23T11:08:44;99947.18;;;25.89;37.62
68506;BME280;55509;50.680;17.942;2022-10-23T11:11:44;99947.88;;;26.96;35.55
68506;BME280;55509;50.680;17.942;2022-10-23T11:14:47;99936.71;;;27.60;34.50
68506;BME280;55509;50.680;17.942;2022-10-23T11:17:51;99935.31;;;27.26;34.79
68506;BME280;55509;50.680;17.942;2022-10-23T11:36:54;99906.07;;;24.93;38.91
68506;BME280;55509;50.680;17.942;2022-10-23T11:43:07;99897.92;;;23.77;41.66
68506;BME280;55509;50.680;17.942;2022-10-23T11:46:13;99896.48;;;24.24;41.47
68506;BME280;55509;50.680;17.942;2022-10-23T11:49:19;99892.50;;;26.32;38.37
68506;BME280;55509;50.680;17.942;2022-10-23T11:52:22;99885.48;;;27.57;36.08
68506;BME280;55509;50.680;17.942;2022-10-23T11:55:25;99882.90;;;28.32;34.85
68506;BME280;55509;50.680;17.942;2022-10-23T11:58:28;99881.72;;;29.45;33.83
68506;BME280;55509;50.680;17.942;2022-10-23T12:01:41;99882.66;;;30.77;31.19
68506;BME280;55509;50.680;17.942;2022-10-23T12:04:48;99877.04;;;31.60;29.70
68506;BME280;55509;50.680;17.942;2022-10-23T12:07:53;99867.42;;;32.02;29.17
68506;BME280;55509;50.680;17.942;2022-10-23T12:10:56;99867.30;;;31.93;29.02
68506;BME280;55509;50.680;17.942;2022-10-23T12:13:57;99869.13;;;31.42;29.54
68506;BME280;55509;50.680;17.942;2022-10-23T12:16:59;99868.54;;;30.93;30.08
68506;BME280;55509;50.680;17.942;2022-10-23T12:29:38;99855.21;;;30.89;29.05
68506;BME280;55509;50.680;17.942;2022-10-23T12:32:56;99852.29;;;29.72;30.06
68506;BME280;55509;50.680;17.942;2022-10-23T12:39:24;99840.59;;;27.67;33.13
68506;BME280;55509;50.680;17.942;2022-10-23T12:42:27;99840.30;;;26.67;34.73
68506;BME280;55509;50.680;17.942;2022-10-23T12:45:35;99840.84;;;26.22;35.75
68506;BME280;55509;50.680;17.942;2022-10-23T12:48:45;99840.20;;;26.11;36.36
68506;BME280;55509;50.680;17.942;2022-10-23T12:51:56;99837.04;;;26.22;36.79
68506;BME280;55509;50.680;17.942;2022-10-23T12:54:58;99828.50;;;26.21;36.58
68506;BME280;55509;50.680;17.942;2022-10-23T12:58:00;99823.73;;;26.47;37.20
68506;BME280;55509;50.680;17.942;2022-10-23T13:01:02;99813.92;;;27.29;36.40
68506;BME280;55509;50.680;17.942;2022-10-23T13:07:19;99800.55;;;29.10;33.43
68506;BME280;55509;50.680;17.942;2022-10-23T13:10:21;99793.71;;;29.37;32.76
68506;BME280;55509;50.680;17.942;2022-10-23T13:13:23;99791.18;;;29.40;32.25
68506;BME280;55509;50.680;17.942;2022-10-23T13:16:25;99792.64;;;29.63;31.76
68506;BME280;55509;50.680;17.942;2022-10-23T13:19:27;99792.84;;;29.88;31.25
68506;BME280;55509;50.680;17.942;2022-10-23T13:22:28;99789.86;;;30.26;31.43
68506;BME280;55509;50.680;17.942;2022-10-23T13:25:31;99787.55;;;30.47;30.72
68506;BME280;55509;50.680;17.942;2022-10-23T13:28:43;99776.38;;;30.29;30.58
68506;BME280;55509;50.680;17.942;2022-10-23T13:31:44;99773.27;;;29.95;30.55
68506;BME280;55509;50.680;17.942;2022-10-23T13:34:49;99767.47;;;29.46;31.04
68506;BME280;55509;50.680;17.942;2022-10-23T13:37:51;99770.40;;;28.91;32.18
68506;BME280;55509;50.680;17.942;2022-10-23T13:40:56;99778.48;;;28.39;32.77
68506;BME280;55509;50.680;17.942;2022-10-23T13:43:59;99778.36;;;27.91;33.51
68506;BME280;55509;50.680;17.942;2022-10-23T13:47:00;99780.64;;;27.88;33.87
68506;BME280;55509;50.680;17.942;2022-10-23T13:50:02;99780.42;;;27.64;33.81
68506;BME280;55509;50.680;17.942;2022-10-23T13:53:03;99781.95;;;26.90;34.76
68506;BME280;55509;50.680;17.942;2022-10-23T13:56:05;99785.36;;;26.22;36.21
68506;BME280;55509;50.680;17.942;2022-10-23T13:59:07;99787.34;;;25.56;37.20
68506;BME280;55509;50.680;17.942;2022-10-23T14:02:17;99785.70;;;24.98;38.32
68506;BME280;55509;50.680;17.942;2022-10-23T14:05:19;99781.86;;;24.15;39.58
68506;BME280;55509;50.680;17.942;2022-10-23T14:08:21;99785.90;;;23.29;41.06
68506;BME280;55509;50.680;17.942;2022-10-23T14:11:22;99783.00;;;22.53;42.68
68506;BME280;55509;50.680;17.942;2022-10-23T14:14:24;99781.41;;;21.90;44.49
68506;BME280;55509;50.680;17.942;2022-10-23T14:17:25;99779.98;;;21.38;45.60
68506;BME280;55509;50.680;17.942;2022-10-23T14:20:27;99781.05;;;20.95;46.80
68506;BME280;55509;50.680;17.942;2022-10-23T14:23:28;99784.30;;;20.55;48.08
68506;BME280;55509;50.680;17.942;2022-10-23T14:26:30;99784.98;;;20.18;49.13
68506;BME280;55509;50.680;17.942;2022-10-23T14:29:32;99783.04;;;19.90;50.06
68506;BME280;55509;50.680;17.942;2022-10-23T14:32:34;99781.97;;;19.68;50.76
68506;BME280;55509;50.680;17.942;2022-10-23T14:35:39;99782.60;;;19.47;51.74
68506;BME280;55509;50.680;17.942;2022-10-23T14:38:41;99781.84;;;19.24;52.93
68506;BME280;55509;50.680;17.942;2022-10-23T14:41:42;99773.09;;;19.01;53.82
68506;BME280;55509;50.680;17.942;2022-10-23T14:44:43;99768.09;;;18.81;54.61
68506;BME280;55509;50.680;17.942;2022-10-23T14:47:45;99767.31;;;18.61;55.44
68506;BME280;55509;50.680;17.942;2022-10-23T14:50:47;99766.83;;;18.42;56.16
68506;BME280;55509;50.680;17.942;2022-10-23T14:53:53;99767.90;;;18.27;56.90
68506;BME280;55509;50.680;17.942;2022-10-23T14:56:56;99769.70;;;18.11;57.68
68506;BME280;55509;50.680;17.942;2022-10-23T14:59:57;99775.20;;;17.98;58.29
68506;BME280;55509;50.680;17.942;2022-10-23T15:02:59;99766.52;;;17.85;58.93
68506;BME280;55509;50.680;17.942;2022-10-23T15:06:00;99770.08;;;17.73;59.66
68506;BME280;55509;50.680;17.942;2022-10-23T15:09:02;99770.02;;;17.61;60.47
68506;BME280;55509;50.680;17.942;2022-10-23T15:12:04;99769.77;;;17.50;60.69
68506;BME280;55509;50.680;17.942;2022-10-23T15:15:06;99773.12;;;17.40;60.84
68506;BME280;55509;50.680;17.942;2022-10-23T15:18:08;99772.82;;;17.29;61.48
68506;BME280;55509;50.680;17.942;2022-10-23T15:21:09;99774.25;;;17.16;62.10
68506;BME280;55509;50.680;17.942;2022-10-23T15:24:11;99770.83;;;17.03;62.42
68506;BME280;55509;50.680;17.942;2022-10-23T15:27:12;99769.19;;;16.90;63.06
68506;BME280;55509;50.680;17.942;2022-10-23T15:30:14;99769.98;;;16.78;63.39
68506;BME280;55509;50.680;17.942;2022-10-23T15:33:15;99770.13;;;16.65;63.94
68506;BME280;55509;50.680;17.942;2022-10-23T15:36:17;99767.39;;;16.53;64.54
68506;BME280;55509;50.680;17.942;2022-10-23T15:39:20;99765.77;;;16.39;65.04
68506;BME280;55509;50.680;17.942;2022-10-23T15:42:22;99765.23;;;16.29;65.44
68506;BME280;55509;50.680;17.942;2022-10-23T15:45:23;99764.80;;;16.20;65.67
68506;BME280;55509;50.680;17.942;2022-10-23T15:48:25;99767.42;;;16.10;66.30
68506;BME280;55509;50.680;17.942;2022-10-23T15:51:26;99757.46;;;15.99;66.76
68506;BME280;55509;50.680;17.942;2022-10-23T15:54:28;99754.77;;;15.89;67.59
68506;BME280;55509;50.680;17.942;2022-10-23T15:57:30;99754.89;;;15.79;67.75
68506;BME280;55509;50.680;17.942;2022-10-23T16:00:32;99760.49;;;15.73;68.00
68506;BME280;55509;50.680;17.942;2022-10-23T16:03:36;99761.88;;;15.66;68.25
68506;BME280;55509;50.680;17.942;2022-10-23T16:06:38;99760.09;;;15.59;68.24
68506;BME280;55509;50.680;17.942;2022-10-23T16:09:39;99758.14;;;15.52;68.58
68506;BME280;55509;50.680;17.942;2022-10-23T16:12:41;99758.83;;;15.44;68.97
68506;BME280;55509;50.680;17.942;2022-10-23T16:15:42;99761.61;;;15.38;69.59
68506;BME280;55509;50.680;17.942;2022-10-23T16:18:44;99764.16;;;15.32;70.10
68506;BME280;55509;50.680;17.942;2022-10-23T16:21:46;99773.02;;;15.29;70.52
68506;BME280;55509;50.680;17.942;2022-10-23T16:24:48;99777.68;;;15.24;70.83
68506;BME280;55509;50.680;17.942;2022-10-23T16:27:51;99780.64;;;15.17;71.21
68506;BME280;55509;50.680;17.942;2022-10-23T16:30:52;99786.73;;;15.11;71.83
68506;BME280;55509;50.680;17.942;2022-10-23T16:33:56;99784.93;;;15.08;72.24
68506;BME280;55509;50.680;17.942;2022-10-23T16:36:57;99793.58;;;15.05;72.54
68506;BME280;55509;50.680;17.942;2022-10-23T16:39:59;99798.91;;;15.00;72.60
68506;BME280;55509;50.680;17.942;2022-10-23T16:43:02;99802.30;;;14.96;72.88
68506;BME280;55509;50.680;17.942;2022-10-23T16:46:08;99810.66;;;14.91;73.06
68506;BME280;55509;50.680;17.942;2022-10-23T16:49:11;99810.52;;;14.86;73.53
68506;BME280;55509;50.680;17.942;2022-10-23T16:52:14;99804.58;;;14.80;73.92
68506;BME280;55509;50.680;17.942;2022-10-23T16:55:15;99806.03;;;14.75;74.01
68506;BME280;55509;50.680;17.942;2022-10-23T16:58:16;99809.75;;;14.70;74.48
68506;BME280;55509;50.680;17.942;2022-10-23T17:01:19;99806.93;;;14.66;74.92
68506;BME280;55509;50.680;17.942;2022-10-23T17:04:21;99807.70;;;14.60;75.28
68506;BME280;55509;50.680;17.942;2022-10-23T17:07:22;99803.80;;;14.56;75.28
68506;BME280;55509;50.680;17.942;2022-10-23T17:10:24;99804.48;;;14.53;75.50
68506;BME280;55509;50.680;17.942;2022-10-23T17:13:25;99805.19;;;14.48;76.17
68506;BME280;55509;50.680;17.942;2022-10-23T17:16:31;99801.00;;;14.43;76.49
68506;BME280;55509;50.680;17.942;2022-10-23T17:19:35;99801.86;;;14.39;76.65
68506;BME280;55509;50.680;17.942;2022-10-23T17:22:37;99799.17;;;14.36;76.96
68506;BME280;55509;50.680;17.942;2022-10-23T17:25:39;99795.30;;;14.31;77.10
68506;BME280;55509;50.680;17.942;2022-10-23T17:28:41;99789.51;;;14.26;77.26
68506;BME280;55509;50.680;17.942;2022-10-23T17:31:44;99787.59;;;14.21;77.19
68506;BME280;55509;50.680;17.942;2022-10-23T17:34:47;99792.40;;;14.16;77.27
68506;BME280;55509;50.680;17.942;2022-10-23T17:37:48;99798.36;;;14.13;77.28
68506;BME280;55509;50.680;17.942;2022-10-23T17:40:50;99801.73;;;14.08;77.49
68506;BME280;55509;50.680;17.942;2022-10-23T17:43:55;99795.77;;;14.02;77.65
68506;BME280;55509;50.680;17.942;2022-10-23T17:46:57;99794.23;;;13.96;77.60